Time;durP1;ratioP1;P1;durP2;ratioP2;P2;SDS_P1;SDS_P2;PMS_P1;PMS_P2;Temp;Humidity;BMP_temperature;BMP_pressure;BME280_temperature;BME280_humidity;BME280_pressure;Samples;Min_cycle;Max_cycle;Signal;HPM_P1;HPM_P2
2022/03/02 00:00:00;;;;;;;13.48;4.93;;;11.10;42.50;;;;;;6273220;28;20122;-69
2022/03/02 00:03:00;;;;;;;13.00;4.45;;;11.10;42.50;;;;;;6275749;28;20290;-69
2022/03/02 00:06:02;;;;;;;11.88;5.15;;;11.10;42.60;;;;;;6249989;28;20037;-69
2022/03/02 00:09:03;;;;;;;13.02;4.80;;;11.00;42.70;;;;;;6249998;28;20137;-69
2022/03/02 00:12:04;;;;;;;10.80;4.65;;;11.00;42.70;;;;;;6250055;28;20044;-68
2022/03/02 00:15:06;;;;;;;11.07;4.30;;;11.00;42.70;;;;;;6249558;28;20087;-69
2022/03/02 00:18:06;;;;;;;11.32;4.72;;;11.00;42.80;;;;;;6266650;28;20037;-68
2022/03/02 00:21:07;;;;;;;10.73;4.25;;;11.00;43.10;;;;;;6248439;28;20049;-69
2022/03/02 00:24:08;;;;;;;16.00;5.55;;;10.90;43.10;;;;;;6271669;28;20040;-69
2022/03/02 00:27:09;;;;;;;9.30;5.00;;;10.90;43.20;;;;;;6276231;28;20132;-69
2022/03/02 00:30:10;;;;;;;18.45;5.78;;;10.90;43.20;;;;;;6274768;28;20385;-69
2022/03/02 00:33:11;;;;;;;11.80;5.65;;;10.90;43.40;;;;;;6275102;28;20052;-70
2022/03/02 00:36:12;;;;;;;14.88;5.78;;;10.80;43.40;;;;;;6258929;28;20055;-70
2022/03/02 00:39:13;;;;;;;15.73;6.53;;;10.80;43.40;;;;;;6274570;28;20041;-70
2022/03/02 00:42:14;;;;;;;23.08;8.55;;;10.80;43.70;;;;;;6258535;28;20041;-69
2022/03/02 00:45:15;;;;;;;22.08;10.10;;;10.70;44.00;;;;;;6274511;28;20407;-69
2022/03/02 00:48:16;;;;;;;28.15;11.27;;;10.70;44.20;;;;;;6274703;28;20049;-70
2022/03/02 00:51:17;;;;;;;22.85;9.40;;;10.70;44.20;;;;;;6275270;28;20040;-69
2022/03/02 00:54:18;;;;;;;19.15;9.02;;;10.60;44.40;;;;;;6275577;28;20446;-69
2022/03/02 00:57:19;;;;;;;15.23;7.88;;;10.50;44.50;;;;;;6274453;28;20044;-69
2022/03/02 01:00:20;;;;;;;21.63;7.97;;;10.50;44.60;;;;;;6273180;28;20033;-70
2022/03/02 01:03:21;;;;;;;15.38;6.72;;;10.40;44.80;;;;;;6275118;28;20563;-69
2022/03/02 01:06:22;;;;;;;15.57;6.15;;;10.40;45.00;;;;;;6275398;28;20033;-69
2022/03/02 01:09:22;;;;;;;20.92;6.57;;;10.30;45.20;;;;;;6275591;28;20049;-69
2022/03/02 01:12:23;;;;;;;13.88;6.28;;;10.20;45.20;;;;;;6257481;28;20086;-69
2022/03/02 01:15:25;;;;;;;13.50;6.40;;;10.20;45.10;;;;;;6275156;28;20051;-69
2022/03/02 01:18:26;;;;;;;13.50;6.00;;;10.20;45.20;;;;;;6274133;28;20041;-69
2022/03/02 01:21:27;;;;;;;15.25;6.03;;;10.20;45.20;;;;;;6275198;28;20037;-70
2022/03/02 01:24:28;;;;;;;18.10;6.68;;;10.10;45.20;;;;;;6273709;28;20114;-69
2022/03/02 01:27:29;;;;;;;13.65;5.68;;;10.10;45.30;;;;;;6273650;28;20045;-69
2022/03/02 01:30:30;;;;;;;13.93;5.82;;;10.10;45.40;;;;;;6274145;28;20477;-71
2022/03/02 01:33:31;;;;;;;16.13;6.05;;;10.00;45.50;;;;;;6273739;28;20029;-69
2022/03/02 01:36:32;;;;;;;11.73;5.53;;;10.00;45.60;;;;;;6276188;28;20130;-70
2022/03/02 01:39:32;;;;;;;11.60;5.13;;;9.90;45.60;;;;;;6274681;28;20420;-69
2022/03/02 01:42:33;;;;;;;10.70;4.82;;;9.90;45.80;;;;;;6274488;28;20490;-69
2022/03/02 01:45:34;;;;;;;10.60;4.63;;;9.80;46.00;;;;;;6248747;28;20523;-70
2022/03/02 01:48:35;;;;;;;12.55;5.25;;;9.80;46.30;;;;;;6248510;28;20046;-69
2022/03/02 01:51:37;;;;;;;14.00;5.10;;;9.70;46.40;;;;;;6256808;28;20037;-68
2022/03/02 01:54:37;;;;;;;17.45;5.10;;;9.70;46.60;;;;;;6273219;28;20033;-69
2022/03/02 01:57:40;;;;;;;21.15;5.07;;;9.60;46.60;;;;;;6274847;28;20041;-69
2022/03/02 02:00:41;;;;;;;8.35;4.63;;;9.60;46.60;;;;;;6271349;28;20029;-68
2022/03/02 02:03:42;;;;;;;10.07;4.78;;;9.60;46.50;;;;;;6273083;28;20037;-68
2022/03/02 02:06:43;;;;;;;20.80;4.88;;;9.60;46.40;;;;;;6272884;28;20351;-68
2022/03/02 02:09:44;;;;;;;10.23;4.47;;;9.60;46.40;;;;;;6272779;28;20128;-69
2022/03/02 02:12:45;;;;;;;11.43;5.30;;;9.60;46.40;;;;;;6269411;28;20036;-69
2022/03/02 02:15:45;;;;;;;12.35;5.32;;;9.70;46.40;;;;;;6255152;28;20051;-70
2022/03/02 02:18:47;;;;;;;11.95;5.07;;;9.70;46.20;;;;;;6231327;28;20038;-69
2022/03/02 02:21:48;;;;;;;13.05;5.35;;;9.70;46.20;;;;;;6248469;28;20485;-69
2022/03/02 02:24:49;;;;;;;11.38;4.78;;;9.70;46.20;;;;;;6272930;28;20033;-70
2022/03/02 02:27:50;;;;;;;15.43;5.30;;;9.70;46.30;;;;;;6273771;28;20053;-68
2022/03/02 02:30:54;;;;;;;10.40;4.85;;;9.80;46.30;;;;;;6273028;28;20123;-68
2022/03/02 02:33:56;;;;;;;9.07;4.00;;;9.80;46.10;;;;;;6273393;28;20457;-69
2022/03/02 02:36:59;;;;;;;7.43;3.60;;;9.80;46.00;;;;;;6262643;28;20029;-69
2022/03/02 02:40:03;;;;;;;11.50;4.30;;;9.80;46.00;;;;;;6258903;28;20032;-70
2022/03/02 02:43:06;;;;;;;10.77;5.32;;;9.70;45.90;;;;;;6256635;28;20044;-69
2022/03/02 02:46:07;;;;;;;13.63;5.40;;;9.70;45.90;;;;;;6272280;28;20040;-69
2022/03/02 02:49:08;;;;;;;10.20;5.22;;;9.70;45.90;;;;;;6271809;28;20036;-69
2022/03/02 02:52:09;;;;;;;8.43;4.50;;;9.70;46.10;;;;;;6273298;28;20075;-71
2022/03/02 02:55:12;;;;;;;12.70;4.10;;;9.70;46.10;;;;;;6273504;28;20037;-69
2022/03/02 02:58:13;;;;;;;14.15;4.60;;;9.70;46.20;;;;;;6272327;28;20131;-69
2022/03/02 03:01:14;;;;;;;15.70;6.68;;;9.70;46.20;;;;;;6272251;28;20362;-70
2022/03/02 03:04:15;;;;;;;19.35;9.40;;;9.70;46.40;;;;;;6272198;28;20120;-69
2022/03/02 03:07:16;;;;;;;30.25;14.82;;;9.70;46.70;;;;;;6273392;28;20063;-69
2022/03/02 03:10:18;;;;;;;42.08;17.70;;;9.70;46.90;;;;;;6271947;28;20116;-69
2022/03/02 03:13:19;;;;;;;32.08;17.25;;;9.60;47.10;;;;;;6274803;28;20489;-69
2022/03/02 03:16:19;;;;;;;30.50;14.48;;;9.50;47.40;;;;;;6276571;28;20033;-69
2022/03/02 03:19:20;;;;;;;35.95;15.70;;;9.50;47.70;;;;;;6278093;28;20454;-69
2022/03/02 03:22:21;;;;;;;33.40;14.95;;;9.40;47.90;;;;;;6260322;28;20056;-70
2022/03/02 03:25:23;;;;;;;30.88;15.77;;;9.40;48.10;;;;;;6276283;28;20045;-70
2022/03/02 03:28:23;;;;;;;32.85;15.65;;;9.30;48.20;;;;;;6277639;28;20064;-69
2022/03/02 03:31:24;;;;;;;32.72;15.07;;;9.30;48.30;;;;;;6237533;28;20382;-69
2022/03/02 03:34:25;;;;;;;33.58;13.98;;;9.20;48.50;;;;;;6251251;28;20064;-68
2022/03/02 03:37:27;;;;;;;32.13;14.02;;;9.20;48.60;;;;;;6252923;28;20040;-69
2022/03/02 03:40:28;;;;;;;32.45;14.80;;;9.20;48.70;;;;;;6251705;28;20040;-69
2022/03/02 03:43:29;;;;;;;38.25;13.75;;;9.10;48.80;;;;;;6251417;28;20038;-69
2022/03/02 03:46:30;;;;;;;34.85;14.30;;;9.10;49.00;;;;;;6251621;28;20029;-68
2022/03/02 03:49:31;;;;;;;31.90;14.05;;;9.10;49.50;;;;;;6234669;28;20437;-70
2022/03/02 03:52:32;;;;;;;19.85;10.75;;;9.00;49.70;;;;;;6251276;28;20133;-69
2022/03/02 03:55:33;;;;;;;36.65;11.60;;;9.00;50.00;;;;;;6210449;28;20072;-68
2022/03/02 03:58:34;;;;;;;19.80;8.85;;;9.00;50.20;;;;;;6251084;28;20556;-69
2022/03/02 04:01:35;;;;;;;14.75;7.05;;;8.90;50.30;;;;;;6275622;28;20033;-69
2022/03/02 04:04:36;;;;;;;17.77;7.82;;;8.90;50.50;;;;;;6275059;28;20363;-68
2022/03/02 04:07:38;;;;;;;30.58;7.60;;;8.80;50.70;;;;;;6276630;28;20098;-68
2022/03/02 04:10:39;;;;;;;19.27;7.32;;;8.80;50.90;;;;;;6275683;28;20458;-69
2022/03/02 04:13:40;;;;;;;18.67;7.15;;;8.70;51.00;;;;;;6277228;28;20135;-69
2022/03/02 04:16:41;;;;;;;16.88;6.70;;;8.70;51.00;;;;;;6276466;28;20033;-69
2022/03/02 04:19:43;;;;;;;20.30;7.93;;;8.70;50.90;;;;;;6275568;28;20476;-69
2022/03/02 04:22:44;;;;;;;28.42;7.40;;;8.60;50.90;;;;;;6275536;28;20060;-69
2022/03/02 04:25:45;;;;;;;22.23;7.55;;;8.70;50.80;;;;;;6261026;28;20083;-68
2022/03/02 04:28:46;;;;;;;20.20;8.13;;;8.70;50.70;;;;;;6276253;28;20037;-69
2022/03/02 04:31:47;;;;;;;16.33;7.78;;;8.80;50.80;;;;;;6276295;28;20495;-69
2022/03/02 04:34:47;;;;;;;22.48;8.27;;;8.80;50.80;;;;;;6275476;28;20446;-69
2022/03/02 04:37:49;;;;;;;16.55;7.68;;;8.80;50.80;;;;;;6274753;28;20416;-69
2022/03/02 04:40:50;;;;;;;17.23;8.63;;;8.80;50.70;;;;;;6249906;28;20025;-69
2022/03/02 04:43:51;;;;;;;17.45;8.30;;;8.80;50.70;;;;;;6251432;28;20112;-69
2022/03/02 04:46:52;;;;;;;14.90;8.13;;;8.80;50.60;;;;;;6250251;28;20349;-69
2022/03/02 04:49:52;;;;;;;18.45;8.13;;;8.80;50.60;;;;;;6257873;28;20116;-69
2022/03/02 04:52:55;;;;;;;26.83;8.45;;;8.80;50.60;;;;;;6249788;28;20052;-69
2022/03/02 04:55:56;;;;;;;27.77;8.05;;;8.80;50.70;;;;;;6257945;28;20143;-69
2022/03/02 04:58:57;;;;;;;17.27;7.47;;;8.80;50.80;;;;;;6273794;28;20462;-70
2022/03/02 05:01:59;;;;;;;21.52;7.63;;;8.80;50.90;;;;;;6273867;28;20049;-69
2022/03/02 05:05:00;;;;;;;18.88;7.47;;;8.70;50.90;;;;;;6273950;28;20379;-69
2022/03/02 05:08:01;;;;;;;17.95;6.45;;;8.60;50.80;;;;;;6274247;28;20056;-69
2022/03/02 05:11:02;;;;;;;11.90;6.15;;;8.60;50.80;;;;;;6257103;28;20040;-69
2022/03/02 05:14:04;;;;;;;16.40;7.53;;;8.60;50.80;;;;;;6274588;28;20451;-69
2022/03/02 05:17:05;;;;;;;16.17;7.45;;;8.60;50.80;;;;;;6274361;28;20029;-69
2022/03/02 05:20:08;;;;;;;21.40;7.38;;;8.60;50.90;;;;;;6273442;28;20037;-69
2022/03/02 05:23:08;;;;;;;22.27;8.77;;;8.60;51.00;;;;;;6266797;28;20033;-69
2022/03/02 05:26:09;;;;;;;23.67;8.82;;;8.50;51.10;;;;;;6258452;28;20067;-68
2022/03/02 05:29:11;;;;;;;22.55;9.55;;;8.50;51.20;;;;;;6265408;28;20046;-68
2022/03/02 05:32:13;;;;;;;19.35;9.02;;;8.50;51.30;;;;;;6238206;28;20116;-68
2022/03/02 05:35:14;;;;;;;18.05;7.53;;;8.50;51.40;;;;;;6246196;28;20075;-69
2022/03/02 05:38:15;;;;;;;22.63;9.65;;;8.40;51.40;;;;;;6259177;28;20089;-69
2022/03/02 05:41:15;;;;;;;24.65;9.20;;;8.40;51.50;;;;;;6228873;28;20034;-68
2022/03/02 05:44:17;;;;;;;17.25;8.52;;;8.40;51.60;;;;;;6243899;28;20037;-70
2022/03/02 05:47:17;;;;;;;22.20;8.88;;;8.30;51.70;;;;;;6264468;28;20052;-70
2022/03/02 05:50:18;;;;;;;19.65;7.82;;;8.30;51.80;;;;;;6270654;28;20124;-70
2022/03/02 05:53:19;;;;;;;19.90;8.52;;;8.20;52.00;;;;;;6270104;28;20037;-68
2022/03/02 05:56:20;;;;;;;20.98;8.80;;;8.20;52.10;;;;;;6266949;28;20099;-68
2022/03/02 05:59:21;;;;;;;31.80;10.43;;;8.10;52.10;;;;;;6257747;28;20036;-69
2022/03/02 06:02:22;;;;;;;24.80;10.75;;;8.10;52.10;;;;;;6245545;28;20041;-69
2022/03/02 06:05:23;;;;;;;21.25;10.95;;;8.00;52.20;;;;;;6251116;28;20169;-69
2022/03/02 06:08:24;;;;;;;27.50;10.82;;;7.90;52.30;;;;;;6248134;28;20049;-69
2022/03/02 06:11:25;;;;;;;26.52;10.30;;;7.90;52.50;;;;;;6235206;28;20033;-70
2022/03/02 06:14:26;;;;;;;24.38;9.85;;;7.80;52.60;;;;;;6265412;28;20047;-69
2022/03/02 06:17:28;;;;;;;20.63;8.57;;;7.80;52.80;;;;;;6261080;28;20048;-69
2022/03/02 06:20:29;;;;;;;23.63;8.68;;;7.70;52.90;;;;;;6259959;28;20083;-68
2022/03/02 06:23:31;;;;;;;31.52;8.18;;;7.70;52.90;;;;;;6257336;28;20029;-73
2022/03/02 06:26:33;;;;;;;24.42;8.48;;;7.70;53.10;;;;;;6257865;28;20375;-71
2022/03/02 06:29:34;;;;;;;19.75;8.07;;;7.60;53.10;;;;;;6255263;28;20533;-68
2022/03/02 06:32:35;;;;;;;21.23;8.45;;;7.60;53.20;;;;;;6257819;28;20450;-70
2022/03/02 06:35:35;;;;;;;20.92;8.02;;;7.60;53.20;;;;;;6259239;28;20267;-69
2022/03/02 06:38:36;;;;;;;16.65;6.72;;;7.60;53.20;;;;;;6259692;28;20037;-70
2022/03/02 06:42:11;;;;;;;20.35;8.00;;;7.60;53.20;;;;;;6256984;28;20520;-69
2022/03/02 06:45:18;;;;;;;15.63;7.68;;;7.60;53.40;;;;;;6250887;28;20450;-69
2022/03/02 06:48:24;;;;;;;19.38;8.77;;;7.60;53.60;;;;;;6247489;28;20033;-69
2022/03/02 06:51:27;;;;;;;26.98;9.57;;;7.60;53.60;;;;;;6271231;28;20102;-69
2022/03/02 06:54:32;;;;;;;21.42;10.35;;;7.60;53.60;;;;;;6249142;28;20067;-69
2022/03/02 06:57:33;;;;;;;19.85;8.82;;;7.70;53.70;;;;;;6259753;28;20110;-69
2022/03/02 07:00:36;;;;;;;21.40;8.95;;;7.70;53.70;;;;;;6260679;28;20045;-69
2022/03/02 07:03:42;;;;;;;20.67;8.98;;;7.70;53.70;;;;;;6259563;28;20466;-70
2022/03/02 07:06:45;;;;;;;17.95;7.75;;;7.70;53.60;;;;;;6259653;28;20049;-69
2022/03/02 07:09:47;;;;;;;24.42;9.50;;;7.70;53.60;;;;;;6256746;28;20042;-67
2022/03/02 07:12:47;;;;;;;21.90;9.10;;;7.80;53.60;;;;;;6258436;28;20040;-69
2022/03/02 07:15:49;;;;;;;18.02;7.22;;;7.80;53.50;;;;;;6247130;28;20470;-69
2022/03/02 07:18:53;;;;;;;18.80;8.50;;;7.90;53.40;;;;;;6271069;28;20037;-69
2022/03/02 07:21:55;;;;;;;13.93;7.10;;;7.90;53.30;;;;;;6255187;28;20308;-69
2022/03/02 07:25:04;;;;;;;17.25;7.53;;;7.90;53.30;;;;;;6274554;28;20048;-68
2022/03/02 07:28:10;;;;;;;21.73;7.50;;;7.90;53.30;;;;;;6274165;28;20040;-68
2022/03/02 07:31:11;;;;;;;17.17;8.23;;;8.00;53.40;;;;;;6275789;28;20098;-68
2022/03/02 07:34:13;;;;;;;20.15;8.18;;;8.10;53.30;;;;;;6273632;28;20481;-68
2022/03/02 07:37:14;;;;;;;20.50;8.27;;;8.10;53.20;;;;;;6274943;28;20037;-68
2022/03/02 07:40:16;;;;;;;16.17;6.88;;;8.20;53.20;;;;;;6257630;28;20041;-71
2022/03/02 07:43:17;;;;;;;21.85;8.27;;;8.30;53.20;;;;;;6275324;28;20040;-69
2022/03/02 07:46:18;;;;;;;21.10;8.27;;;8.40;53.10;;;;;;6251111;28;20097;-69
2022/03/02 07:49:20;;;;;;;17.08;7.75;;;8.50;52.90;;;;;;6265555;28;20090;-68
2022/03/02 07:52:26;;;;;;;24.13;9.52;;;8.50;52.70;;;;;;6257220;28;20377;-71
2022/03/02 07:55:28;;;;;;;23.20;8.50;;;8.60;52.50;;;;;;6271917;28;20037;-69
2022/03/02 07:58:30;;;;;;;22.40;9.68;;;8.70;52.40;;;;;;6269764;28;20090;-69
2022/03/02 08:01:36;;;;;;;21.00;8.40;;;8.70;52.20;;;;;;6273878;28;20041;-69
2022/03/02 08:04:38;;;;;;;25.17;8.38;;;8.90;52.10;;;;;;6265648;28;20098;-68
2022/03/02 08:07:39;;;;;;;14.48;7.18;;;9.00;51.70;;;;;;6232705;28;20090;-70
2022/03/02 08:10:42;;;;;;;37.42;7.40;;;9.10;51.40;;;;;;6249601;28;20115;-68
2022/03/02 08:13:43;;;;;;;14.90;7.78;;;9.10;51.20;;;;;;6251692;28;20049;-68
2022/03/02 08:16:48;;;;;;;19.65;7.38;;;9.20;51.10;;;;;;6256097;28;20045;-69
2022/03/02 08:19:49;;;;;;;24.70;8.85;;;9.30;51.00;;;;;;6242592;28;20116;-68
2022/03/02 08:22:53;;;;;;;15.77;8.18;;;9.40;50.80;;;;;;6273952;28;20109;-70
2022/03/02 08:25:54;;;;;;;21.65;8.57;;;9.50;51.00;;;;;;6274679;28;20037;-68
2022/03/02 08:28:57;;;;;;;17.13;7.53;;;9.60;50.00;;;;;;6273558;28;20040;-69
2022/03/02 08:32:02;;;;;;;19.98;7.75;;;9.70;49.60;;;;;;6274518;28;20469;-68
2022/03/02 08:35:05;;;;;;;18.02;8.55;;;9.70;49.30;;;;;;6274643;28;20037;-69
2022/03/02 08:38:06;;;;;;;21.08;8.93;;;9.70;49.30;;;;;;6273186;28;20120;-69
2022/03/02 08:41:09;;;;;;;34.38;8.18;;;9.70;49.30;;;;;;6274261;28;20462;-69
2022/03/02 08:44:13;;;;;;;21.45;8.90;;;9.80;49.30;;;;;;6270803;28;20045;-69
2022/03/02 08:47:14;;;;;;;18.90;8.25;;;10.00;49.10;;;;;;6273002;28;20079;-69
2022/03/02 08:50:15;;;;;;;19.58;8.95;;;10.10;49.00;;;;;;6273778;28;20083;-69
2022/03/02 08:53:17;;;;;;;22.67;7.53;;;10.20;48.80;;;;;;6272713;28;20048;-69
2022/03/02 08:56:18;;;;;;;23.90;8.63;;;10.30;48.70;;;;;;6272596;28;20025;-69
2022/03/02 08:59:20;;;;;;;26.27;8.15;;;10.50;48.60;;;;;;6271604;28;20407;-68
2022/03/02 09:02:24;;;;;;;26.92;8.65;;;10.60;48.20;;;;;;6272623;28;20037;-69
2022/03/02 09:05:27;;;;;;;19.75;8.82;;;10.70;47.90;;;;;;6273290;28;20045;-69
2022/03/02 09:08:29;;;;;;;21.23;8.90;;;10.80;47.60;;;;;;6278322;28;20064;-70
2022/03/02 09:11:30;;;;;;;22.45;9.50;;;10.90;47.30;;;;;;6272321;28;20072;-69
2022/03/02 09:14:31;;;;;;;28.27;9.27;;;10.90;47.20;;;;;;6272508;28;20039;-69
2022/03/02 09:17:32;;;;;;;22.70;9.50;;;11.10;47.20;;;;;;6254761;28;20410;-69
2022/03/02 09:20:33;;;;;;;21.85;9.85;;;11.20;47.10;;;;;;6273655;28;20037;-69
2022/03/02 09:23:40;;;;;;;18.00;8.93;;;11.30;46.80;;;;;;6237344;28;20040;-69
2022/03/02 09:26:43;;;;;;;23.17;9.68;;;11.40;46.50;;;;;;6271870;28;20438;-70
2022/03/02 09:29:46;;;;;;;24.60;10.52;;;11.50;46.20;;;;;;6271709;28;20040;-69
2022/03/02 09:32:52;;;;;;;19.58;9.23;;;11.60;45.80;;;;;;6272339;28;20113;-69
2022/03/02 09:35:55;;;;;;;16.83;8.43;;;11.60;45.80;;;;;;6272033;28;20059;-70
2022/03/02 09:38:55;;;;;;;20.80;9.35;;;11.70;45.80;;;;;;6248005;28;20053;-71
2022/03/02 09:42:03;;;;;;;21.52;9.07;;;11.80;45.60;;;;;;6271049;28;20052;-70
2022/03/02 09:45:07;;;;;;;22.15;8.38;;;12.00;45.50;;;;;;6265865;28;20186;-69
2022/03/02 09:48:17;;;;;;;25.63;10.25;;;12.10;45.10;;;;;;6271391;28;20040;-69
2022/03/02 09:51:23;;;;;;;24.20;9.02;;;12.20;45.10;;;;;;6271116;28;20523;-69
2022/03/02 09:54:25;;;;;;;35.15;11.77;;;12.30;45.00;;;;;;6272317;28;20060;-69
2022/03/02 09:57:27;;;;;;;23.45;9.55;;;12.50;44.90;;;;;;6271119;28;20074;-69
2022/03/02 10:00:29;;;;;;;31.45;10.00;;;12.60;44.60;;;;;;6269252;28;20033;-69
2022/03/02 10:03:36;;;;;;;20.38;8.75;;;12.70;44.40;;;;;;6271215;28;20124;-70
2022/03/02 10:06:42;;;;;;;19.88;9.68;;;12.70;44.00;;;;;;6271377;28;20041;-69
2022/03/02 10:10:06;;;;;;;17.40;8.48;;;12.80;43.90;;;;;;6272009;28;20115;-69
2022/03/02 10:13:09;;;;;;;22.25;8.20;;;12.80;44.00;;;;;;6246320;28;20036;-70
2022/03/02 10:16:24;;;;;;;26.42;10.27;;;12.90;44.00;;;;;;6270852;28;20067;-69
2022/03/02 10:19:28;;;;;;;24.30;10.50;;;13.10;43.80;;;;;;6270863;28;20365;-69
2022/03/02 10:22:29;;;;;;;26.80;9.68;;;13.20;43.50;;;;;;6270454;28;20044;-69
2022/03/02 10:25:36;;;;;;;24.15;10.45;;;13.30;43.20;;;;;;6271916;28;20037;-69
2022/03/02 10:28:53;;;;;;;24.17;8.95;;;13.40;42.90;;;;;;6253988;28;20048;-69
2022/03/02 10:32:13;;;;;;;25.00;10.57;;;13.50;42.80;;;;;;6270513;28;20036;-69
2022/03/02 10:35:19;;;;;;;19.13;7.00;;;13.70;42.60;;;;;;6267420;28;20041;-70
2022/03/02 10:38:30;;;;;;;23.60;8.50;;;14.00;42.00;;;;;;6254036;28;20048;-70
2022/03/02 10:41:39;;;;;;;23.13;8.13;;;14.40;41.10;;;;;;6270088;28;20041;-70
2022/03/02 10:44:51;;;;;;;28.48;7.97;;;14.80;40.60;;;;;;6268463;28;20466;-69
2022/03/02 10:47:59;;;;;;;29.95;11.38;;;15.20;40.10;;;;;;6268864;28;20407;-69
2022/03/02 10:51:01;;;;;;;18.60;8.20;;;15.60;39.50;;;;;;6268829;28;20041;-69
2022/03/02 10:54:06;;;;;;;24.65;7.90;;;15.80;38.60;;;;;;6268975;28;20307;-69
2022/03/02 10:57:11;;;;;;;16.73;7.63;;;16.00;38.40;;;;;;6270006;28;20045;-69
2022/03/02 11:00:15;;;;;;;14.40;6.97;;;16.20;38.00;;;;;;6268036;28;20029;-70
2022/03/02 11:03:16;;;;;;;19.20;7.03;;;16.40;37.80;;;;;;6270247;28;20480;-70
2022/03/02 11:06:20;;;;;;;13.73;7.43;;;16.60;37.50;;;;;;6267243;28;20048;-70
2022/03/02 11:09:24;;;;;;;19.05;7.43;;;16.80;37.30;;;;;;6269218;28;20053;-71
2022/03/02 11:12:26;;;;;;;14.60;7.57;;;16.90;37.00;;;;;;6252001;28;20049;-69
2022/03/02 11:15:29;;;;;;;13.75;6.80;;;17.10;36.50;;;;;;6242609;28;20454;-70
2022/03/02 11:18:52;;;;;;;19.35;7.32;;;17.30;36.00;;;;;;6261425;28;20074;-71
2022/03/02 11:21:53;;;;;;;24.25;7.72;;;17.40;35.70;;;;;;6268857;28;20061;-71
2022/03/02 11:24:56;;;;;;;16.75;7.47;;;17.60;35.40;;;;;;6261352;28;20037;-71
2022/03/02 11:28:05;;;;;;;15.10;7.13;;;17.80;35.00;;;;;;6274715;28;20386;-69
2022/03/02 11:31:08;;;;;;;18.73;7.63;;;17.90;34.80;;;;;;6251473;28;20074;-69
2022/03/02 11:34:18;;;;;;;25.33;8.27;;;18.20;34.60;;;;;;6267333;28;20033;-71
2022/03/02 11:37:22;;;;;;;14.80;6.93;;;18.50;34.20;;;;;;6274081;28;20039;-71
2022/03/02 11:40:41;;;;;;;15.65;6.57;;;18.80;33.80;;;;;;6274147;28;20032;-71
2022/03/02 11:43:43;;;;;;;18.60;7.90;;;19.10;33.20;;;;;;6273373;28;20033;-70
2022/03/02 11:46:47;;;;;;;17.52;7.78;;;19.50;32.60;;;;;;6273324;28;20032;-72
2022/03/02 11:49:51;;;;;;;20.85;7.32;;;19.90;31.30;;;;;;6273399;28;20418;-71
2022/03/02 11:52:51;;;;;;;14.40;6.97;;;20.00;30.70;;;;;;6273293;28;20510;-71
2022/03/02 11:55:54;;;;;;;17.35;6.65;;;20.30;30.20;;;;;;6268866;28;20027;-71
2022/03/02 11:59:09;;;;;;;19.90;6.75;;;20.70;29.90;;;;;;6258280;28;20103;-72
2022/03/02 12:02:15;;;;;;;15.30;6.03;;;20.90;29.40;;;;;;6239286;28;20045;-72
2022/03/02 12:05:18;;;;;;;16.92;6.63;;;21.10;29.30;;;;;;6251084;28;20038;-70
2022/03/02 12:08:21;;;;;;;16.52;6.95;;;21.10;29.30;;;;;;6259159;28;20139;-71
2022/03/02 12:11:35;;;;;;;21.77;6.75;;;21.20;29.20;;;;;;6260838;28;20040;-71
2022/03/02 12:14:46;;;;;;;16.83;6.72;;;21.30;29.10;;;;;;6258971;28;20479;-70
2022/03/02 12:17:49;;;;;;;14.57;5.68;;;21.40;28.50;;;;;;6256794;28;20045;-71
2022/03/02 12:20:51;;;;;;;10.65;5.35;;;21.70;28.20;;;;;;6258963;28;20025;-71
2022/03/02 12:23:53;;;;;;;11.10;5.10;;;22.00;27.70;;;;;;6260097;28;20048;-71
2022/03/02 12:27:08;;;;;;;15.23;5.43;;;22.50;27.40;;;;;;6258888;28;20454;-71
2022/03/02 12:30:11;;;;;;;7.80;4.32;;;22.90;27.10;;;;;;6257734;28;20481;-70
2022/03/02 12:33:12;;;;;;;13.35;4.88;;;23.40;26.50;;;;;;6255239;28;20052;-71
2022/03/02 12:36:14;;;;;;;13.05;4.75;;;23.90;25.90;;;;;;6224028;28;20038;-71
2022/03/02 12:39:15;;;;;;;8.82;4.65;;;24.30;25.40;;;;;;6251832;28;20047;-71
2022/03/02 12:42:16;;;;;;;15.65;4.68;;;24.30;25.20;;;;;;6264914;28;20044;-72
2022/03/02 12:45:19;;;;;;;14.63;4.60;;;24.10;25.20;;;;;;6266717;28;20036;-70
2022/03/02 12:48:22;;;;;;;13.07;3.95;;;23.90;25.40;;;;;;6258490;28;20097;-70
2022/03/02 12:51:28;;;;;;;10.13;3.80;;;23.50;25.70;;;;;;6258415;28;20533;-72
2022/03/02 12:54:31;;;;;;;12.90;4.20;;;22.90;26.00;;;;;;6257309;28;20065;-72
2022/03/02 12:57:34;;;;;;;7.10;3.53;;;22.40;26.50;;;;;;6260818;28;20102;-71
2022/03/02 13:00:36;;;;;;;6.85;3.67;;;22.00;27.00;;;;;;6240629;28;20034;-71
2022/03/02 13:03:45;;;;;;;11.13;4.32;;;21.80;27.30;;;;;;6241162;28;20089;-72
2022/03/02 13:07:05;;;;;;;7.43;3.97;;;21.80;27.30;;;;;;6260464;28;20409;-70
2022/03/02 13:10:12;;;;;;;6.78;2.75;;;21.80;27.20;;;;;;6247325;28;20058;-73
2022/03/02 13:13:13;;;;;;;10.30;3.60;;;21.90;27.20;;;;;;6252427;28;20053;-72
2022/03/02 13:16:37;;;;;;;6.38;2.75;;;21.80;27.20;;;;;;6258453;28;20064;-69
2022/03/02 13:19:48;;;;;;;9.20;2.90;;;21.60;27.40;;;;;;6256926;28;20120;-70
2022/03/02 13:22:50;;;;;;;10.80;2.80;;;21.30;27.60;;;;;;6257460;28;20038;-69
2022/03/02 13:26:00;;;;;;;7.38;3.10;;;21.00;28.00;;;;;;6251715;28;20033;-69
2022/03/02 13:29:12;;;;;;;7.82;2.70;;;20.60;28.90;;;;;;6251543;28;20044;-70
2022/03/02 13:32:13;;;;;;;5.60;2.70;;;20.40;28.80;;;;;;6267339;28;20049;-69
2022/03/02 13:35:15;;;;;;;4.97;2.28;;;20.30;29.00;;;;;;6249872;28;20374;-69
2022/03/02 13:38:16;;;;;;;9.77;3.00;;;20.30;29.20;;;;;;6253850;28;20433;-70
2022/03/02 13:41:55;;;;;;;9.02;3.08;;;20.30;29.30;;;;;;6252034;28;20033;-69
2022/03/02 13:45:10;;;;;;;3.35;2.60;;;20.20;29.40;;;;;;6202942;28;20422;-70
2022/03/02 13:48:17;;;;;;;8.68;2.72;;;20.20;29.40;;;;;;6216122;28;20046;-69
2022/03/02 13:51:19;;;;;;;;;;;20.20;29.40;;;;;;6187649;28;20034;-70
2022/03/02 13:54:27;;;;;;;10.15;2.25;;;20.20;29.40;;;;;;6220162;28;19932;-69
2022/03/02 13:57:31;;;;;;;14.63;2.45;;;20.20;29.50;;;;;;6202742;28;20038;-69
2022/03/02 14:00:32;;;;;;;10.75;2.40;;;20.30;29.60;;;;;;6217548;28;20053;-68
2022/03/02 14:03:33;;;;;;;7.50;2.70;;;20.30;29.50;;;;;;6215239;28;20033;-68
2022/03/02 14:06:39;;;;;;;6.85;2.30;;;20.30;29.50;;;;;;6202481;28;20042;-69
2022/03/02 14:09:41;;;;;;;6.78;2.85;;;20.30;29.50;;;;;;6218628;28;20065;-69
2022/03/02 14:12:59;;;;;;;5.82;2.17;;;20.30;29.60;;;;;;6179010;28;20034;-69
2022/03/02 14:16:06;;;;;;;4.07;1.97;;;20.30;29.60;;;;;;6193495;28;20121;-68
2022/03/02 14:19:11;;;;;;;10.68;2.25;;;20.20;29.70;;;;;;6214853;28;20049;-69
2022/03/02 14:22:15;;;;;;;8.45;2.35;;;20.10;29.90;;;;;;6261153;28;20447;-68
2022/03/02 14:25:16;;;;;;;7.68;3.10;;;20.00;30.00;;;;;;6269591;28;20028;-69
2022/03/02 14:28:17;;;;;;;3.20;1.92;;;20.00;30.10;;;;;;6257986;28;20425;-69
2022/03/02 14:31:18;;;;;;;6.57;2.17;;;19.90;30.30;;;;;;6245087;28;20125;-70
2022/03/02 14:34:19;;;;;;;4.82;2.00;;;19.80;30.40;;;;;;6264692;28;20091;-72
2022/03/02 14:37:28;;;;;;;7.05;2.03;;;19.70;30.40;;;;;;6268795;28;20116;-69
2022/03/02 14:40:34;;;;;;;8.05;1.98;;;19.60;30.60;;;;;;6258520;28;20034;-69
2022/03/02 14:43:35;;;;;;;2.97;2.10;;;19.60;30.60;;;;;;6202255;28;20435;-69
2022/03/02 14:46:36;;;;;;;4.80;2.10;;;19.50;30.60;;;;;;6245449;28;20057;-70
2022/03/02 14:49:40;;;;;;;7.80;2.45;;;19.40;30.70;;;;;;6241676;28;20103;-69
2022/03/02 14:52:48;;;;;;;5.20;2.30;;;19.20;30.90;;;;;;6203138;28;20037;-68
2022/03/02 14:56:05;;;;;;;4.07;1.95;;;19.10;31.00;;;;;;6242772;28;20166;-70
2022/03/02 14:59:12;;;;;;;7.70;2.20;;;19.10;31.30;;;;;;6223244;28;20030;-70
2022/03/02 15:02:12;;;;;;;7.60;1.67;;;19.10;31.40;;;;;;6259769;28;20036;-69
2022/03/02 15:05:14;;;;;;;13.50;2.08;;;19.10;31.50;;;;;;6240035;28;20041;-70
2022/03/02 15:08:16;;;;;;;6.43;1.92;;;19.00;31.70;;;;;;6256479;28;20045;-68
2022/03/02 15:11:24;;;;;;;6.82;3.03;;;18.90;31.80;;;;;;6244321;28;20124;-68
2022/03/02 15:17:45;;;;;;;5.00;2.20;;;18.80;32.30;;;;;;6256493;28;20049;-68
2022/03/02 15:20:51;;;;;;;4.57;1.75;;;18.60;32.40;;;;;;6250981;28;20040;-70
2022/03/02 15:23:53;;;;;;;8.40;2.03;;;18.40;32.80;;;;;;6226782;28;20030;-69
2022/03/02 15:26:54;;;;;;;3.55;2.25;;;18.30;33.00;;;;;;6239926;28;20120;-68
2022/03/02 15:30:15;;;;;;;7.22;2.10;;;18.20;33.20;;;;;;6260495;28;20041;-69
2022/03/02 15:33:18;;;;;;;4.30;2.10;;;18.10;33.60;;;;;;6249837;28;20045;-69
2022/03/02 15:36:19;;;;;;;5.38;1.98;;;18.00;33.80;;;;;;6256513;28;20069;-69
2022/03/02 15:39:25;;;;;;;5.07;2.00;;;17.80;34.10;;;;;;6243835;28;20457;-69
2022/03/02 15:42:38;;;;;;;7.60;2.22;;;17.70;34.40;;;;;;6246103;28;20394;-69
2022/03/02 15:45:40;;;;;;;6.20;2.20;;;17.70;34.70;;;;;;6251425;28;20114;-69
2022/03/02 15:48:43;;;;;;;4.15;1.85;;;17.60;34.80;;;;;;6252908;28;20037;-69
2022/03/02 15:51:44;;;;;;;8.45;2.28;;;17.60;34.90;;;;;;6255142;28;20052;-68